ソウル/仁川 の空港の天気 - METARとTAF

仁川国際空港 ( RKSI / ICN ) - 韓国 仁川広域市 (ソウル特別市近郊)
飛行場実況気象(Metar)
観測時間01/23 17:00 KST (01/23 08:00 UTC)
風向・風速北北西 7m/s
視程10km以上
天気現象
全天の4割程度の雲 雲底高度 910m
気温-10℃
湿度44%
気圧1025hPa
METARRKSI 230800Z 33013KT 9999 SCT030 M10/M20 Q1025 NOSIG
過去の天気等 Google飛行場航空写真 Wunderground天気予報

過去48時間のMETAR

飛行場予報(TAF)
発表時間: 1/23 14:00 KST (1/23 05:00 UTC)
予報対象時間: 23日15時 KST ~ 24日21時 KST
風向・風速北北西 7m/s
視程10km以上
なし
23日16時 KST ~ 23日19時 KST に一時的に
視程10km以上
全天の8割程度の雲 雲底高度 760m
24日10時 KST ~ 24日19時 KST に一時的に
風向・風速北北西 9m/s 瞬間風速 15m/s
TAF RKSI 230500Z 2306/2412 33013KT CAVOK TNM15/2322Z TXM11/2405Z
TEMPO 2307/2310 9999 BKN025
TEMPO 2401/2410 33017G30KT